sensor_id;sensor_type;location;lat;lon;timestamp;pressure;altitude;pressure_sealevel;temperature;humidity
40285;BME280;25997;50.214;19.354;2022-09-09T00:02:24;97493.31;;;17.07;68.60
40285;BME280;25997;50.214;19.354;2022-09-09T00:05:36;97494.25;;;17.06;68.31
40285;BME280;25997;50.214;19.354;2022-09-09T00:08:51;97492.44;;;17.09;67.85
40285;BME280;25997;50.214;19.354;2022-09-09T00:12:01;97496.06;;;16.96;68.51
40285;BME280;25997;50.214;19.354;2022-09-09T00:15:10;97487.31;;;16.85;68.48
40285;BME280;25997;50.214;19.354;2022-09-09T00:18:20;97500.59;;;16.82;68.28
40285;BME280;25997;50.214;19.354;2022-09-09T00:21:31;97492.78;;;16.66;69.63
40285;BME280;25997;50.214;19.354;2022-09-09T00:24:42;97498.16;;;16.55;69.81
40285;BME280;25997;50.214;19.354;2022-09-09T00:27:45;97498.09;;;16.63;69.69
40285;BME280;25997;50.214;19.354;2022-09-09T00:30:49;97500.75;;;16.61;68.86
40285;BME280;25997;50.214;19.354;2022-09-09T00:33:53;97506.06;;;16.61;68.78
40285;BME280;25997;50.214;19.354;2022-09-09T00:36:57;97502.53;;;16.62;69.07
40285;BME280;25997;50.214;19.354;2022-09-09T00:40:11;97509.59;;;16.62;69.32
40285;BME280;25997;50.214;19.354;2022-09-09T00:43:28;97511.28;;;16.72;69.10
40285;BME280;25997;50.214;19.354;2022-09-09T00:46:48;97513.06;;;16.71;69.34
40285;BME280;25997;50.214;19.354;2022-09-09T00:50:00;97506.84;;;16.80;68.95
40285;BME280;25997;50.214;19.354;2022-09-09T00:53:13;97509.44;;;16.84;68.77
40285;BME280;25997;50.214;19.354;2022-09-09T00:56:25;97513.00;;;16.79;68.83
40285;BME280;25997;50.214;19.354;2022-09-09T00:59:34;97521.00;;;16.77;69.14
40285;BME280;25997;50.214;19.354;2022-09-09T01:02:48;97528.00;;;16.83;69.14
40285;BME280;25997;50.214;19.354;2022-09-09T01:06:13;97525.34;;;16.86;68.90
40285;BME280;25997;50.214;19.354;2022-09-09T01:09:22;97520.94;;;16.80;68.88
40285;BME280;25997;50.214;19.354;2022-09-09T01:12:34;97528.06;;;16.80;69.24
40285;BME280;25997;50.214;19.354;2022-09-09T01:15:44;97528.00;;;16.86;69.14
40285;BME280;25997;50.214;19.354;2022-09-09T01:18:51;97535.03;;;16.90;68.45
40285;BME280;25997;50.214;19.354;2022-09-09T01:22:03;97532.38;;;16.93;68.20
40285;BME280;25997;50.214;19.354;2022-09-09T01:25:28;97538.59;;;16.87;68.24
40285;BME280;25997;50.214;19.354;2022-09-09T01:28:48;97542.19;;;16.82;68.34
40285;BME280;25997;50.214;19.354;2022-09-09T01:31:57;97546.69;;;16.68;68.44
40285;BME280;25997;50.214;19.354;2022-09-09T01:35:00;97552.91;;;16.62;68.68
40285;BME280;25997;50.214;19.354;2022-09-09T01:38:04;97543.19;;;16.60;69.24
40285;BME280;25997;50.214;19.354;2022-09-09T01:41:08;97547.63;;;16.58;69.19
40285;BME280;25997;50.214;19.354;2022-09-09T01:44:23;97543.22;;;16.54;69.25
40285;BME280;25997;50.214;19.354;2022-09-09T01:47:27;97544.06;;;16.62;69.17
40285;BME280;25997;50.214;19.354;2022-09-09T01:50:46;97540.53;;;16.58;68.96
40285;BME280;25997;50.214;19.354;2022-09-09T01:53:49;97542.34;;;16.55;69.34
40285;BME280;25997;50.214;19.354;2022-09-09T01:57:01;97544.06;;;16.62;69.40
40285;BME280;25997;50.214;19.354;2022-09-09T02:00:13;97536.97;;;16.68;68.97
40285;BME280;25997;50.214;19.354;2022-09-09T02:03:21;97546.72;;;16.60;69.29
40285;BME280;25997;50.214;19.354;2022-09-09T02:06:36;97550.28;;;16.55;69.05
40285;BME280;25997;50.214;19.354;2022-09-09T02:10:00;97543.22;;;16.57;69.05
40285;BME280;25997;50.214;19.354;2022-09-09T02:13:08;97547.63;;;16.59;68.96
40285;BME280;25997;50.214;19.354;2022-09-09T02:16:18;97540.59;;;16.47;69.51
40285;BME280;25997;50.214;19.354;2022-09-09T02:19:27;97556.50;;;16.44;69.38
40285;BME280;25997;50.214;19.354;2022-09-09T02:22:40;97545.91;;;16.44;69.16
40285;BME280;25997;50.214;19.354;2022-09-09T02:25:45;97548.63;;;16.31;69.71
40285;BME280;25997;50.214;19.354;2022-09-09T02:28:57;97562.78;;;16.22;70.03
40285;BME280;25997;50.214;19.354;2022-09-09T02:32:07;97564.50;;;16.32;69.45
40285;BME280;25997;50.214;19.354;2022-09-09T02:35:15;97573.34;;;16.33;69.24
40285;BME280;25997;50.214;19.354;2022-09-09T02:38:20;97568.09;;;16.24;69.83
40285;BME280;25997;50.214;19.354;2022-09-09T02:41:40;97588.41;;;16.16;70.14
40285;BME280;25997;50.214;19.354;2022-09-09T02:44:44;97582.19;;;16.23;69.80
40285;BME280;25997;50.214;19.354;2022-09-09T02:47:53;97582.22;;;16.20;69.32
40285;BME280;25997;50.214;19.354;2022-09-09T02:51:05;97585.78;;;16.11;69.46
40285;BME280;25997;50.214;19.354;2022-09-09T02:54:20;97594.63;;;16.09;69.01
40285;BME280;25997;50.214;19.354;2022-09-09T02:57:28;97592.91;;;15.97;69.63
40285;BME280;25997;50.214;19.354;2022-09-09T03:00:33;97593.78;;;15.98;69.22
40285;BME280;25997;50.214;19.354;2022-09-09T03:03:38;97601.69;;;16.01;69.05
40285;BME280;25997;50.214;19.354;2022-09-09T03:06:46;97603.47;;;16.03;68.98
40285;BME280;25997;50.214;19.354;2022-09-09T03:09:54;97599.94;;;15.98;69.59
40285;BME280;25997;50.214;19.354;2022-09-09T03:12:59;97603.47;;;16.02;69.37
40285;BME280;25997;50.214;19.354;2022-09-09T03:16:05;97610.50;;;16.10;68.95
40285;BME280;25997;50.214;19.354;2022-09-09T03:19:15;97599.91;;;16.10;69.03
40285;BME280;25997;50.214;19.354;2022-09-09T03:22:19;97604.38;;;15.93;69.92
40285;BME280;25997;50.214;19.354;2022-09-09T03:25:22;97610.56;;;15.86;70.03
40285;BME280;25997;50.214;19.354;2022-09-09T03:28:28;97612.31;;;15.99;69.59
40285;BME280;25997;50.214;19.354;2022-09-09T03:31:34;97616.72;;;15.99;69.44
40285;BME280;25997;50.214;19.354;2022-09-09T03:34:40;97605.22;;;16.07;68.90
40285;BME280;25997;50.214;19.354;2022-09-09T03:37:46;97602.56;;;16.10;69.09
40285;BME280;25997;50.214;19.354;2022-09-09T03:40:51;97614.94;;;16.13;68.61
40285;BME280;25997;50.214;19.354;2022-09-09T03:43:56;97619.31;;;16.20;68.62
40285;BME280;25997;50.214;19.354;2022-09-09T03:47:01;97619.28;;;16.26;68.62
40285;BME280;25997;50.214;19.354;2022-09-09T03:50:07;97624.56;;;16.30;68.28
40285;BME280;25997;50.214;19.354;2022-09-09T03:53:15;97628.97;;;16.36;68.37
40285;BME280;25997;50.214;19.354;2022-09-09T03:56:18;97623.66;;;16.39;67.90
40285;BME280;25997;50.214;19.354;2022-09-09T03:59:23;97636.03;;;16.44;67.75
40285;BME280;25997;50.214;19.354;2022-09-09T04:02:26;97632.47;;;16.52;68.03
40285;BME280;25997;50.214;19.354;2022-09-09T04:05:30;97635.03;;;16.67;67.80
40285;BME280;25997;50.214;19.354;2022-09-09T04:08:35;97635.94;;;16.69;67.23
40285;BME280;25997;50.214;19.354;2022-09-09T04:11:40;97635.94;;;16.69;67.02
40285;BME280;25997;50.214;19.354;2022-09-09T04:14:43;97641.28;;;16.60;67.11
40285;BME280;25997;50.214;19.354;2022-09-09T04:17:46;97644.81;;;16.59;67.39
40285;BME280;25997;50.214;19.354;2022-09-09T04:20:50;97639.53;;;16.53;67.07
40285;BME280;25997;50.214;19.354;2022-09-09T04:23:56;97633.41;;;16.35;67.34
40285;BME280;25997;50.214;19.354;2022-09-09T04:27:00;97645.81;;;16.24;67.45
40285;BME280;25997;50.214;19.354;2022-09-09T04:30:04;97636.09;;;16.23;67.64
40285;BME280;25997;50.214;19.354;2022-09-09T04:33:09;97640.50;;;16.26;67.57
40285;BME280;25997;50.214;19.354;2022-09-09T04:36:14;97641.38;;;16.31;67.62
40285;BME280;25997;50.214;19.354;2022-09-09T04:39:17;97639.59;;;16.28;67.44
40285;BME280;25997;50.214;19.354;2022-09-09T04:42:20;97638.72;;;16.23;67.35
40285;BME280;25997;50.214;19.354;2022-09-09T04:45:23;97642.25;;;16.22;67.30
40285;BME280;25997;50.214;19.354;2022-09-09T04:48:28;97637.84;;;16.21;67.01
40285;BME280;25997;50.214;19.354;2022-09-09T04:51:34;97637.88;;;16.20;67.11
40285;BME280;25997;50.214;19.354;2022-09-09T04:54:37;97651.97;;;16.16;66.88
40285;BME280;25997;50.214;19.354;2022-09-09T04:57:40;97660.88;;;16.04;67.13
40285;BME280;25997;50.214;19.354;2022-09-09T05:00:47;97655.56;;;15.89;67.70
40285;BME280;25997;50.214;19.354;2022-09-09T05:03:50;97657.34;;;15.84;67.71
40285;BME280;25997;50.214;19.354;2022-09-09T05:06:58;97660.88;;;15.75;67.54
40285;BME280;25997;50.214;19.354;2022-09-09T05:10:01;97660.00;;;15.69;67.64
40285;BME280;25997;50.214;19.354;2022-09-09T05:13:07;97665.28;;;15.67;68.02
40285;BME280;25997;50.214;19.354;2022-09-09T05:16:11;97658.25;;;15.71;67.64
40285;BME280;25997;50.214;19.354;2022-09-09T05:19:14;97660.00;;;15.70;67.65
40285;BME280;25997;50.214;19.354;2022-09-09T05:22:23;97648.53;;;15.76;67.67
40285;BME280;25997;50.214;19.354;2022-09-09T05:25:27;97660.00;;;15.73;67.46
40285;BME280;25997;50.214;19.354;2022-09-09T05:28:33;97663.50;;;15.75;67.53
40285;BME280;25997;50.214;19.354;2022-09-09T05:31:37;97664.41;;;15.76;67.64
40285;BME280;25997;50.214;19.354;2022-09-09T05:34:44;97671.50;;;15.71;68.21
40285;BME280;25997;50.214;19.354;2022-09-09T05:37:49;97667.94;;;15.75;68.15
40285;BME280;25997;50.214;19.354;2022-09-09T05:40:52;97668.81;;;15.80;68.07
40285;BME280;25997;50.214;19.354;2022-09-09T05:43:55;97666.16;;;15.88;67.68
40285;BME280;25997;50.214;19.354;2022-09-09T05:47:00;97672.34;;;15.88;68.17
40285;BME280;25997;50.214;19.354;2022-09-09T05:50:04;97673.22;;;15.90;68.28
40285;BME280;25997;50.214;19.354;2022-09-09T05:53:08;97674.09;;;15.98;67.88
40285;BME280;25997;50.214;19.354;2022-09-09T05:56:13;97671.44;;;16.06;67.92
40285;BME280;25997;50.214;19.354;2022-09-09T05:59:17;97676.72;;;16.13;67.79
40285;BME280;25997;50.214;19.354;2022-09-09T06:02:20;97674.94;;;16.30;67.42
40285;BME280;25997;50.214;19.354;2022-09-09T06:05:24;97669.59;;;16.29;67.42
40285;BME280;25997;50.214;19.354;2022-09-09T06:08:31;97666.09;;;16.43;67.04
40285;BME280;25997;50.214;19.354;2022-09-09T06:11:34;97665.16;;;16.49;67.29
40285;BME280;25997;50.214;19.354;2022-09-09T06:14:37;97664.25;;;16.64;66.77
40285;BME280;25997;50.214;19.354;2022-09-09T06:17:41;97673.06;;;16.67;66.14
40285;BME280;25997;50.214;19.354;2022-09-09T06:20:53;97673.91;;;16.80;66.19
40285;BME280;25997;50.214;19.354;2022-09-09T06:23:57;97685.31;;;16.89;66.19
40285;BME280;25997;50.214;19.354;2022-09-09T06:27:00;97675.56;;;16.99;66.20
40285;BME280;25997;50.214;19.354;2022-09-09T06:30:08;97672.81;;;17.14;65.28
40285;BME280;25997;50.214;19.354;2022-09-09T06:33:12;97672.81;;;17.14;65.14
40285;BME280;25997;50.214;19.354;2022-09-09T06:36:17;97675.47;;;17.17;65.20
40285;BME280;25997;50.214;19.354;2022-09-09T06:39:21;97682.56;;;17.19;64.51
40285;BME280;25997;50.214;19.354;2022-09-09T06:42:24;97682.50;;;17.18;64.74
40285;BME280;25997;50.214;19.354;2022-09-09T06:45:39;97684.22;;;17.31;64.87
40285;BME280;25997;50.214;19.354;2022-09-09T06:48:43;97691.31;;;17.32;64.58
40285;BME280;25997;50.214;19.354;2022-09-09T06:51:48;97686.78;;;17.45;64.87
40285;BME280;25997;50.214;19.354;2022-09-09T06:54:52;97683.19;;;17.55;64.21
40285;BME280;25997;50.214;19.354;2022-09-09T06:57:56;97683.13;;;17.65;63.29
40285;BME280;25997;50.214;19.354;2022-09-09T07:01:03;97687.47;;;17.75;62.83
40285;BME280;25997;50.214;19.354;2022-09-09T07:04:07;97679.41;;;17.86;62.86
40285;BME280;25997;50.214;19.354;2022-09-09T07:07:13;97684.69;;;17.90;62.66
40285;BME280;25997;50.214;19.354;2022-09-09T07:10:18;97680.31;;;17.86;62.24
40285;BME280;25997;50.214;19.354;2022-09-09T07:13:23;97687.47;;;17.74;62.78
40285;BME280;25997;50.214;19.354;2022-09-09T07:16:27;97686.59;;;17.75;62.68
40285;BME280;25997;50.214;19.354;2022-09-09T07:19:33;97679.41;;;17.84;62.65
40285;BME280;25997;50.214;19.354;2022-09-09T07:22:38;97686.38;;;18.01;62.17
40285;BME280;25997;50.214;19.354;2022-09-09T07:25:45;97683.59;;;18.14;61.68
40285;BME280;25997;50.214;19.354;2022-09-09T07:28:51;97682.72;;;18.15;61.81
40285;BME280;25997;50.214;19.354;2022-09-09T07:31:54;97672.78;;;18.32;61.50
40285;BME280;25997;50.214;19.354;2022-09-09T07:35:02;97669.91;;;18.49;60.93
40285;BME280;25997;50.214;19.354;2022-09-09T07:38:05;97671.69;;;18.50;60.20
40285;BME280;25997;50.214;19.354;2022-09-09T07:41:11;97672.56;;;18.49;60.37
40285;BME280;25997;50.214;19.354;2022-09-09T07:44:16;97671.66;;;18.51;60.46
40285;BME280;25997;50.214;19.354;2022-09-09T07:47:23;97677.84;;;18.55;60.04
40285;BME280;25997;50.214;19.354;2022-09-09T07:50:26;97675.97;;;18.66;59.94
40285;BME280;25997;50.214;19.354;2022-09-09T07:53:29;97675.75;;;18.84;59.01
40285;BME280;25997;50.214;19.354;2022-09-09T07:56:33;97679.34;;;18.82;59.05
40285;BME280;25997;50.214;19.354;2022-09-09T07:59:37;97682.69;;;18.96;58.36
40285;BME280;25997;50.214;19.354;2022-09-09T08:02:39;97692.38;;;19.01;58.02
40285;BME280;25997;50.214;19.354;2022-09-09T08:05:44;97699.44;;;19.02;57.60
40285;BME280;25997;50.214;19.354;2022-09-09T08:08:50;97690.25;;;19.24;57.02
40285;BME280;25997;50.214;19.354;2022-09-09T08:11:54;97699.91;;;19.36;56.20
40285;BME280;25997;50.214;19.354;2022-09-09T08:14:58;97701.53;;;19.46;56.03
40285;BME280;25997;50.214;19.354;2022-09-09T08:18:05;97703.09;;;19.61;55.39
40285;BME280;25997;50.214;19.354;2022-09-09T08:21:10;97704.09;;;19.52;55.56
40285;BME280;25997;50.214;19.354;2022-09-09T08:24:14;97698.75;;;19.55;54.77
40285;BME280;25997;50.214;19.354;2022-09-09T08:27:22;97700.03;;;19.85;54.40
40285;BME280;25997;50.214;19.354;2022-09-09T08:30:26;97709.47;;;20.07;53.96
40285;BME280;25997;50.214;19.354;2022-09-09T08:33:29;97709.03;;;20.31;53.35
40285;BME280;25997;50.214;19.354;2022-09-09T08:36:33;97722.28;;;20.37;52.53
40285;BME280;25997;50.214;19.354;2022-09-09T08:39:37;97711.00;;;20.69;52.96
40285;BME280;25997;50.214;19.354;2022-09-09T08:42:43;97717.47;;;21.02;51.48
40285;BME280;25997;50.214;19.354;2022-09-09T08:45:57;97702.56;;;21.33;51.40
40285;BME280;25997;50.214;19.354;2022-09-09T08:49:07;97702.66;;;21.68;50.15
40285;BME280;25997;50.214;19.354;2022-09-09T08:52:22;97709.31;;;21.87;49.81
40285;BME280;25997;50.214;19.354;2022-09-09T08:55:35;97698.72;;;22.19;49.81
40285;BME280;25997;50.214;19.354;2022-09-09T08:58:44;97708.00;;;22.39;48.79
40285;BME280;25997;50.214;19.354;2022-09-09T09:01:55;97711.47;;;22.44;47.39
40285;BME280;25997;50.214;19.354;2022-09-09T09:05:19;97703.44;;;22.10;46.40
40285;BME280;25997;50.214;19.354;2022-09-09T09:08:29;97707.25;;;22.00;47.12
40285;BME280;25997;50.214;19.354;2022-09-09T09:11:36;97694.63;;;22.06;47.96
40285;BME280;25997;50.214;19.354;2022-09-09T09:14:43;97699.81;;;22.45;46.92
40285;BME280;25997;50.214;19.354;2022-09-09T09:17:46;97704.50;;;22.37;46.45
40285;BME280;25997;50.214;19.354;2022-09-09T09:20:58;97700.00;;;22.39;45.92
40285;BME280;25997;50.214;19.354;2022-09-09T09:24:10;97698.53;;;22.61;46.66
40285;BME280;25997;50.214;19.354;2022-09-09T09:27:27;97702.22;;;22.87;46.45
40285;BME280;25997;50.214;19.354;2022-09-09T09:30:39;97695.97;;;23.19;43.18
40285;BME280;25997;50.214;19.354;2022-09-09T09:33:47;97703.81;;;22.95;44.79
40285;BME280;25997;50.214;19.354;2022-09-09T09:36:54;97701.22;;;23.51;45.11
40285;BME280;25997;50.214;19.354;2022-09-09T09:40:11;97696.66;;;24.10;43.38
40285;BME280;25997;50.214;19.354;2022-09-09T09:43:19;97698.81;;;24.52;43.73
40285;BME280;25997;50.214;19.354;2022-09-09T09:46:24;97696.94;;;24.27;42.43
40285;BME280;25997;50.214;19.354;2022-09-09T09:49:31;97693.31;;;24.02;43.58
40285;BME280;25997;50.214;19.354;2022-09-09T09:52:35;97708.44;;;23.79;42.42
40285;BME280;25997;50.214;19.354;2022-09-09T09:55:50;97703.88;;;23.81;43.20
40285;BME280;25997;50.214;19.354;2022-09-09T09:58:55;97693.34;;;24.55;43.17
40285;BME280;25997;50.214;19.354;2022-09-09T10:02:18;97698.59;;;25.07;41.51
40285;BME280;25997;50.214;19.354;2022-09-09T10:05:29;97701.44;;;24.78;42.62
40285;BME280;25997;50.214;19.354;2022-09-09T10:08:45;97701.41;;;24.28;41.88
40285;BME280;25997;50.214;19.354;2022-09-09T10:11:55;97697.78;;;24.03;41.94
40285;BME280;25997;50.214;19.354;2022-09-09T10:15:01;97688.84;;;23.77;41.84
40285;BME280;25997;50.214;19.354;2022-09-09T10:18:24;97694.66;;;23.89;41.51
40285;BME280;25997;50.214;19.354;2022-09-09T10:21:56;97695.75;;;23.84;41.36
40285;BME280;25997;50.214;19.354;2022-09-09T10:25:35;97702.50;;;23.68;40.54
40285;BME280;25997;50.214;19.354;2022-09-09T10:28:55;97704.16;;;23.72;41.88
40285;BME280;25997;50.214;19.354;2022-09-09T10:32:07;97715.28;;;23.59;42.38
40285;BME280;25997;50.214;19.354;2022-09-09T10:35:24;97716.00;;;23.64;41.09
40285;BME280;25997;50.214;19.354;2022-09-09T10:38:30;97716.84;;;23.67;42.08
40285;BME280;25997;50.214;19.354;2022-09-09T10:41:44;97709.84;;;23.61;42.27
40285;BME280;25997;50.214;19.354;2022-09-09T10:45:00;97720.66;;;23.58;42.12
40285;BME280;25997;50.214;19.354;2022-09-09T10:48:19;97719.56;;;23.36;41.46
40285;BME280;25997;50.214;19.354;2022-09-09T10:51:35;97716.53;;;23.19;41.03
40285;BME280;25997;50.214;19.354;2022-09-09T10:54:52;97716.69;;;23.13;42.10
40285;BME280;25997;50.214;19.354;2022-09-09T10:58:00;97718.41;;;23.14;41.69
40285;BME280;25997;50.214;19.354;2022-09-09T11:01:12;97708.78;;;23.08;41.97
40285;BME280;25997;50.214;19.354;2022-09-09T11:04:20;97712.47;;;23.35;42.33
40285;BME280;25997;50.214;19.354;2022-09-09T11:07:35;97718.72;;;24.18;40.54
40285;BME280;25997;50.214;19.354;2022-09-09T11:10:43;97712.75;;;25.35;39.64
40285;BME280;25997;50.214;19.354;2022-09-09T11:13:55;97718.16;;;26.45;38.75
40285;BME280;25997;50.214;19.354;2022-09-09T11:17:01;97720.56;;;26.93;36.80
40285;BME280;25997;50.214;19.354;2022-09-09T11:20:06;97721.69;;;27.28;36.88
40285;BME280;25997;50.214;19.354;2022-09-09T11:23:17;97725.56;;;27.02;36.76
40285;BME280;25997;50.214;19.354;2022-09-09T11:26:30;97713.63;;;26.67;37.08
40285;BME280;25997;50.214;19.354;2022-09-09T11:30:04;97723.22;;;26.11;36.81
40285;BME280;25997;50.214;19.354;2022-09-09T11:33:27;97723.97;;;26.14;35.94
40285;BME280;25997;50.214;19.354;2022-09-09T11:36:47;97723.41;;;26.06;37.07
40285;BME280;25997;50.214;19.354;2022-09-09T11:40:07;97720.88;;;26.23;36.97
40285;BME280;25997;50.214;19.354;2022-09-09T11:43:12;97722.50;;;25.84;37.67
40285;BME280;25997;50.214;19.354;2022-09-09T11:46:18;97716.78;;;25.47;37.87
40285;BME280;25997;50.214;19.354;2022-09-09T11:49:27;97721.69;;;25.36;38.27
40285;BME280;25997;50.214;19.354;2022-09-09T11:52:37;97717.56;;;25.02;38.43
40285;BME280;25997;50.214;19.354;2022-09-09T11:55:41;97716.56;;;24.80;38.80
40285;BME280;25997;50.214;19.354;2022-09-09T11:58:55;97713.41;;;24.94;38.33
40285;BME280;25997;50.214;19.354;2022-09-09T12:01:59;97709.56;;;25.01;38.77
40285;BME280;25997;50.214;19.354;2022-09-09T12:05:06;97719.06;;;25.34;38.75
40285;BME280;25997;50.214;19.354;2022-09-09T12:08:15;97708.63;;;25.50;38.01
40285;BME280;25997;50.214;19.354;2022-09-09T12:11:28;97713.56;;;25.37;37.08
40285;BME280;25997;50.214;19.354;2022-09-09T12:14:36;97706.03;;;25.24;37.23
40285;BME280;25997;50.214;19.354;2022-09-09T12:17:42;97720.09;;;25.07;36.93
40285;BME280;25997;50.214;19.354;2022-09-09T12:20:55;97703.84;;;25.10;37.02
40285;BME280;25997;50.214;19.354;2022-09-09T12:24:02;97718.13;;;25.35;37.05
40285;BME280;25997;50.214;19.354;2022-09-09T12:27:15;97714.25;;;25.42;37.51
40285;BME280;25997;50.214;19.354;2022-09-09T12:30:21;97715.94;;;25.45;36.72
40285;BME280;25997;50.214;19.354;2022-09-09T12:33:35;97716.59;;;25.05;36.40
40285;BME280;25997;50.214;19.354;2022-09-09T12:36:38;97714.66;;;24.84;36.91
40285;BME280;25997;50.214;19.354;2022-09-09T12:39:45;97717.69;;;24.75;36.87
40285;BME280;25997;50.214;19.354;2022-09-09T12:42:51;97715.38;;;24.64;36.40
40285;BME280;25997;50.214;19.354;2022-09-09T12:45:56;97716.47;;;24.59;36.57
40285;BME280;25997;50.214;19.354;2022-09-09T12:49:01;97716.28;;;24.39;37.09
40285;BME280;25997;50.214;19.354;2022-09-09T12:52:06;97708.81;;;24.20;37.25
40285;BME280;25997;50.214;19.354;2022-09-09T12:55:17;97707.06;;;24.19;36.88
40285;BME280;25997;50.214;19.354;2022-09-09T12:58:24;97717.00;;;24.17;37.43
40285;BME280;25997;50.214;19.354;2022-09-09T13:01:30;97711.69;;;24.42;37.90
40285;BME280;25997;50.214;19.354;2022-09-09T13:04:34;97700.63;;;24.76;36.57
40285;BME280;25997;50.214;19.354;2022-09-09T13:07:36;97708.25;;;25.13;36.25
40285;BME280;25997;50.214;19.354;2022-09-09T13:10:43;97710.44;;;25.25;35.35
40285;BME280;25997;50.214;19.354;2022-09-09T13:13:54;97707.72;;;25.26;35.02
40285;BME280;25997;50.214;19.354;2022-09-09T13:16:58;97708.69;;;25.48;34.74
40285;BME280;25997;50.214;19.354;2022-09-09T13:20:02;97706.59;;;25.32;35.19
40285;BME280;25997;50.214;19.354;2022-09-09T13:23:05;97708.00;;;25.19;34.94
40285;BME280;25997;50.214;19.354;2022-09-09T13:26:21;97705.34;;;24.94;35.08
40285;BME280;25997;50.214;19.354;2022-09-09T13:29:26;97696.94;;;24.78;35.88
40285;BME280;25997;50.214;19.354;2022-09-09T13:32:28;97688.69;;;24.60;35.71
40285;BME280;25997;50.214;19.354;2022-09-09T13:35:32;97695.91;;;24.31;35.91
40285;BME280;25997;50.214;19.354;2022-09-09T13:38:37;97693.28;;;24.30;36.39
40285;BME280;25997;50.214;19.354;2022-09-09T13:41:43;97687.66;;;24.64;35.77
40285;BME280;25997;50.214;19.354;2022-09-09T13:44:47;97683.56;;;24.77;35.62
40285;BME280;25997;50.214;19.354;2022-09-09T13:47:50;97688.41;;;24.67;35.18
40285;BME280;25997;50.214;19.354;2022-09-09T13:50:57;97694.66;;;24.68;36.43
40285;BME280;25997;50.214;19.354;2022-09-09T13:54:00;97691.38;;;24.84;36.10
40285;BME280;25997;50.214;19.354;2022-09-09T13:57:03;97677.50;;;24.96;35.28
40285;BME280;25997;50.214;19.354;2022-09-09T14:00:11;97687.88;;;25.53;35.20
40285;BME280;25997;50.214;19.354;2022-09-09T14:03:14;97680.19;;;26.51;34.80
40285;BME280;25997;50.214;19.354;2022-09-09T14:06:17;97682.69;;;27.91;32.78
40285;BME280;25997;50.214;19.354;2022-09-09T14:09:20;97683.53;;;28.63;31.88
40285;BME280;25997;50.214;19.354;2022-09-09T14:12:23;97678.84;;;28.49;32.29
40285;BME280;25997;50.214;19.354;2022-09-09T14:15:27;97670.69;;;28.15;31.14
40285;BME280;25997;50.214;19.354;2022-09-09T14:18:30;97677.19;;;27.75;31.74
40285;BME280;25997;50.214;19.354;2022-09-09T14:21:32;97669.97;;;27.18;32.37
40285;BME280;25997;50.214;19.354;2022-09-09T14:24:35;97665.28;;;26.64;32.26
40285;BME280;25997;50.214;19.354;2022-09-09T14:27:37;97658.03;;;26.24;33.14
40285;BME280;25997;50.214;19.354;2022-09-09T14:30:43;97656.09;;;26.06;33.54
40285;BME280;25997;50.214;19.354;2022-09-09T14:33:45;97656.25;;;25.80;34.02
40285;BME280;25997;50.214;19.354;2022-09-09T14:36:48;97651.47;;;25.66;34.57
40285;BME280;25997;50.214;19.354;2022-09-09T14:39:52;97651.78;;;25.59;34.02
40285;BME280;25997;50.214;19.354;2022-09-09T14:42:55;97648.97;;;25.62;33.90
40285;BME280;25997;50.214;19.354;2022-09-09T14:46:04;97650.88;;;25.80;33.68
40285;BME280;25997;50.214;19.354;2022-09-09T14:49:07;97654.78;;;25.95;33.96
40285;BME280;25997;50.214;19.354;2022-09-09T14:52:11;97651.66;;;25.84;33.35
40285;BME280;25997;50.214;19.354;2022-09-09T14:55:14;97650.44;;;25.69;33.40
40285;BME280;25997;50.214;19.354;2022-09-09T14:58:17;97655.22;;;25.39;33.73
40285;BME280;25997;50.214;19.354;2022-09-09T15:01:21;97651.47;;;25.20;33.46
40285;BME280;25997;50.214;19.354;2022-09-09T15:04:24;97654.03;;;25.01;33.56
40285;BME280;25997;50.214;19.354;2022-09-09T15:07:27;97650.34;;;24.79;34.40
40285;BME280;25997;50.214;19.354;2022-09-09T15:10:30;97648.50;;;24.81;34.11
40285;BME280;25997;50.214;19.354;2022-09-09T15:13:34;97650.38;;;24.78;34.30
40285;BME280;25997;50.214;19.354;2022-09-09T15:16:39;97655.09;;;24.97;33.90
40285;BME280;25997;50.214;19.354;2022-09-09T15:19:42;97651.81;;;25.13;33.93
40285;BME280;25997;50.214;19.354;2022-09-09T15:22:44;97649.41;;;25.28;33.30
40285;BME280;25997;50.214;19.354;2022-09-09T15:25:51;97651.06;;;25.54;32.84
40285;BME280;25997;50.214;19.354;2022-09-09T15:28:54;97653.56;;;25.80;33.43
40285;BME280;25997;50.214;19.354;2022-09-09T15:31:58;97658.69;;;26.29;32.73
40285;BME280;25997;50.214;19.354;2022-09-09T15:35:00;97653.41;;;27.07;32.04
40285;BME280;25997;50.214;19.354;2022-09-09T15:38:03;97660.00;;;27.76;31.66
40285;BME280;25997;50.214;19.354;2022-09-09T15:41:06;97660.00;;;27.76;31.70
40285;BME280;25997;50.214;19.354;2022-09-09T15:44:10;97649.25;;;27.20;32.18
40285;BME280;25997;50.214;19.354;2022-09-09T15:47:14;97645.72;;;26.79;32.56
40285;BME280;25997;50.214;19.354;2022-09-09T15:50:17;97650.03;;;26.63;32.83
40285;BME280;25997;50.214;19.354;2022-09-09T15:53:20;97650.75;;;26.26;32.94
40285;BME280;25997;50.214;19.354;2022-09-09T15:56:23;97655.41;;;25.80;34.21
40285;BME280;25997;50.214;19.354;2022-09-09T15:59:26;97663.66;;;25.30;33.91
40285;BME280;25997;50.214;19.354;2022-09-09T16:02:31;97653.94;;;24.80;34.32
40285;BME280;25997;50.214;19.354;2022-09-09T16:05:34;97652.91;;;24.35;34.87
40285;BME280;25997;50.214;19.354;2022-09-09T16:08:37;97658.81;;;23.92;35.52
40285;BME280;25997;50.214;19.354;2022-09-09T16:11:40;97656.38;;;23.56;35.89
40285;BME280;25997;50.214;19.354;2022-09-09T16:14:43;97652.00;;;23.26;36.35
40285;BME280;25997;50.214;19.354;2022-09-09T16:17:47;97647.50;;;22.96;36.81
40285;BME280;25997;50.214;19.354;2022-09-09T16:20:54;97649.13;;;22.72;37.33